Terminal Aerodrome Forecast
Issued by NWS

Home | Current Version | Previous Version | Text Only | Print | Product List | Glossary On
Versions: 1 2 3 4 5 6 7 8 9 10 11 12
000
FTUS45 KTWC 221121
TAFOLS
TAF
KOLS 221121Z 2212/2312 VRB03KT P6SM FEW090 SCT200
     FM222000 16007KT P6SM SCT090 SCT250
     FM230300 VRB04KT P6SM BKN250=

USA.gov is the U.S. government's official web portal to all federal, state and local government web resources and services.